createdAt,value
2023-01-20T00:00:38.023Z,97.50
2023-01-20T00:03:04.765Z,97.60
2023-01-20T00:05:31.390Z,97.80
2023-01-20T00:07:58.014Z,97.90
2023-01-20T00:10:24.776Z,98.10
2023-01-20T00:12:51.407Z,97.90
2023-01-20T00:15:18.123Z,97.90
2023-01-20T00:17:44.780Z,98.00
2023-01-20T00:20:12.349Z,98.10
2023-01-20T00:22:42.232Z,97.90
2023-01-20T00:25:10.659Z,97.90
2023-01-20T00:27:37.453Z,97.90
2023-01-20T00:30:05.001Z,98.00
2023-01-20T00:32:36.261Z,98.00
2023-01-20T00:35:02.901Z,98.00
2023-01-20T00:37:29.533Z,98.10
2023-01-20T00:39:56.173Z,98.00
2023-01-20T00:42:22.812Z,98.10
2023-01-20T00:44:49.493Z,98.20
2023-01-20T00:47:16.160Z,98.40
2023-01-20T00:49:42.784Z,98.40
2023-01-20T00:52:09.405Z,98.40
2023-01-20T00:54:36.038Z,98.40
2023-01-20T00:57:02.728Z,98.70
2023-01-20T00:59:29.459Z,98.90
2023-01-20T01:01:56.424Z,99.00
2023-01-20T01:04:23.124Z,99.20
2023-01-20T01:06:50.748Z,99.20
2023-01-20T01:09:17.412Z,99.10
2023-01-20T01:11:44.180Z,99.00
2023-01-20T01:14:10.808Z,99.00
2023-01-20T01:16:39.816Z,99.00
2023-01-20T01:19:06.487Z,98.90
2023-01-20T01:21:33.543Z,98.80
2023-01-20T01:24:00.258Z,98.80
2023-01-20T01:26:27.128Z,98.70
2023-01-20T01:28:53.920Z,98.90
2023-01-20T01:31:22.028Z,98.90
2023-01-20T01:33:49.229Z,99.20
2023-01-20T01:36:17.428Z,99.10
2023-01-20T01:38:44.377Z,99.40
2023-01-20T01:41:15.173Z,99.50
2023-01-20T01:44:01.766Z,99.60
2023-01-20T01:46:28.541Z,99.90
2023-01-20T01:48:57.127Z,99.90
2023-01-20T01:51:27.425Z,99.90
2023-01-20T01:54:00.114Z,99.90
2023-01-20T01:56:28.950Z,99.90
2023-01-20T01:58:59.991Z,99.90
2023-01-20T02:01:28.639Z,99.90
2023-01-20T02:04:09.028Z,99.90
2023-01-20T02:06:40.988Z,99.90
2023-01-20T02:09:07.730Z,99.90
2023-01-20T02:11:41.586Z,99.90
2023-01-20T02:14:08.853Z,99.90
2023-01-20T02:17:09.043Z,99.90
2023-01-20T02:20:20.712Z,99.90
2023-01-20T02:23:10.402Z,99.90
2023-01-20T02:26:13.952Z,99.90
2023-01-20T02:29:14.672Z,99.90
2023-01-20T02:32:04.501Z,99.90
2023-01-20T02:34:58.976Z,99.90
2023-01-20T02:37:29.694Z,99.90
2023-01-20T02:40:00.860Z,99.90
2023-01-20T02:42:42.481Z,99.90
2023-01-20T02:45:37.789Z,99.90
2023-01-20T02:48:30.249Z,99.90
2023-01-20T02:51:02.810Z,99.90
2023-01-20T02:53:38.908Z,99.90
2023-01-20T02:56:06.471Z,99.90
2023-01-20T02:58:46.200Z,99.90
2023-01-20T03:01:43.900Z,99.90
2023-01-20T03:04:15.254Z,99.90
2023-01-20T03:06:50.831Z,99.90
2023-01-20T03:09:22.106Z,99.90
2023-01-20T03:11:56.627Z,99.90
2023-01-20T03:14:23.613Z,99.90
2023-01-20T03:16:50.796Z,99.90
2023-01-20T03:19:20.424Z,99.90
2023-01-20T03:21:47.783Z,99.90
2023-01-20T03:24:14.502Z,99.90
2023-01-20T03:26:41.466Z,99.90
2023-01-20T03:29:15.847Z,99.90
2023-01-20T03:31:48.107Z,99.90
2023-01-20T03:34:19.607Z,99.90
2023-01-20T03:36:47.105Z,99.90
2023-01-20T03:39:14.160Z,99.90
2023-01-20T03:42:10.885Z,99.90
2023-01-20T03:44:59.343Z,99.90
2023-01-20T03:47:44.891Z,99.90
2023-01-20T03:50:42.920Z,99.90
2023-01-20T03:53:30.185Z,99.90
2023-01-20T03:56:09.649Z,99.90
2023-01-20T03:58:43.795Z,99.90
2023-01-20T04:01:17.814Z,99.90
2023-01-20T04:03:47.946Z,99.90
2023-01-20T04:06:16.755Z,99.90
2023-01-20T04:08:48.679Z,99.90
2023-01-20T04:11:15.548Z,99.90
2023-01-20T04:13:42.224Z,99.90
2023-01-20T04:16:15.747Z,99.90
2023-01-20T04:18:45.370Z,99.90
2023-01-20T04:21:33.236Z,99.90
2023-01-20T04:24:07.308Z,99.90
2023-01-20T04:26:34.000Z,99.90
2023-01-20T04:29:09.773Z,99.90
2023-01-20T04:31:38.280Z,99.90
2023-01-20T04:34:05.494Z,99.90
2023-01-20T04:36:32.138Z,99.90
2023-01-20T04:38:58.848Z,99.90
2023-01-20T04:41:25.625Z,99.90
2023-01-20T04:43:52.316Z,99.90
2023-01-20T04:46:19.072Z,99.90
2023-01-20T04:48:46.259Z,99.90
2023-01-20T04:51:13.310Z,99.90
2023-01-20T04:53:40.116Z,99.90
2023-01-20T04:56:14.353Z,99.90
2023-01-20T04:58:42.168Z,99.90
2023-01-20T05:01:08.958Z,99.90
2023-01-20T05:03:36.731Z,99.90
2023-01-20T05:06:03.597Z,99.90
2023-01-20T05:08:30.298Z,99.90
2023-01-20T05:10:56.976Z,99.90
2023-01-20T05:13:23.760Z,99.90
2023-01-20T05:15:50.403Z,99.90
2023-01-20T05:18:17.099Z,99.90
2023-01-20T05:20:50.177Z,99.90
2023-01-20T05:23:17.180Z,99.90
2023-01-20T05:25:50.394Z,99.90
2023-01-20T05:28:17.156Z,99.90
2023-01-20T05:30:43.839Z,99.90
2023-01-20T05:33:10.700Z,99.90
2023-01-20T05:35:40.872Z,99.90
2023-01-20T05:38:07.566Z,99.90
2023-01-20T05:40:34.424Z,99.90
2023-01-20T05:43:04.427Z,99.90
2023-01-20T05:45:32.412Z,99.90
2023-01-20T05:48:00.257Z,99.90
2023-01-20T05:50:28.070Z,99.90
2023-01-20T05:52:55.027Z,99.90
2023-01-20T05:55:22.085Z,99.90
2023-01-20T05:57:48.776Z,99.90
2023-01-20T06:00:18.693Z,99.90
2023-01-20T06:02:45.616Z,99.90
2023-01-20T06:05:15.463Z,99.90
2023-01-20T06:07:42.508Z,99.90
2023-01-20T06:10:09.757Z,99.90
2023-01-20T06:12:36.443Z,99.90
2023-01-20T06:15:04.242Z,99.90
2023-01-20T06:17:30.825Z,99.90
2023-01-20T06:19:57.631Z,99.90
2023-01-20T06:22:27.370Z,99.90
2023-01-20T06:24:54.012Z,99.90
2023-01-20T06:27:20.707Z,99.90
2023-01-20T06:29:47.732Z,99.90
2023-01-20T06:32:14.419Z,99.90
2023-01-20T06:34:41.072Z,99.90
2023-01-20T06:37:07.917Z,99.90
2023-01-20T06:39:34.579Z,99.90
2023-01-20T06:42:01.242Z,99.90
2023-01-20T06:44:28.621Z,99.90
2023-01-20T06:46:57.324Z,99.90
2023-01-20T06:49:24.112Z,99.90
2023-01-20T06:51:50.821Z,99.90
2023-01-20T06:54:17.629Z,99.90
2023-01-20T06:56:44.267Z,99.90
2023-01-20T06:59:11.986Z,99.90
2023-01-20T07:01:39.529Z,99.90
2023-01-20T07:04:06.552Z,99.90
2023-01-20T07:06:41.117Z,99.90
2023-01-20T07:09:10.620Z,99.90
2023-01-20T07:11:37.657Z,99.90
2023-01-20T07:14:05.517Z,99.90
2023-01-20T07:16:33.132Z,99.90
2023-01-20T07:19:00.079Z,99.90
2023-01-20T07:21:26.962Z,99.90
2023-01-20T07:23:53.824Z,99.90
2023-01-20T07:26:24.135Z,99.90
2023-01-20T07:28:51.934Z,99.90
2023-01-20T07:31:25.365Z,99.90
2023-01-20T07:33:54.502Z,99.90
2023-01-20T07:36:21.273Z,99.90
2023-01-20T07:38:49.314Z,99.90
2023-01-20T07:41:18.157Z,99.90
2023-01-20T07:43:46.251Z,99.90
2023-01-20T07:46:13.823Z,99.90
2023-01-20T07:48:40.936Z,99.90
2023-01-20T07:51:10.202Z,99.90
2023-01-20T07:53:41.977Z,99.90
2023-01-20T07:56:16.902Z,99.90
2023-01-20T07:58:47.531Z,99.90
2023-01-20T08:01:18.468Z,99.90
2023-01-20T08:03:45.662Z,99.90
2023-01-20T08:06:14.913Z,99.90
2023-01-20T08:08:42.013Z,99.90
2023-01-20T08:11:10.844Z,99.90
2023-01-20T08:13:37.972Z,99.90
2023-01-20T08:16:07.445Z,99.90
2023-01-20T08:18:35.612Z,99.90
2023-01-20T08:21:08.386Z,99.90
2023-01-20T08:23:36.051Z,99.90
2023-01-20T08:26:06.254Z,99.90
2023-01-20T08:28:35.075Z,99.90
2023-01-20T08:31:06.898Z,99.90
2023-01-20T08:33:33.676Z,99.90
2023-01-20T08:36:09.178Z,99.90
2023-01-20T08:38:36.732Z,99.90
2023-01-20T08:41:10.409Z,99.90
2023-01-20T08:43:37.674Z,99.90
2023-01-20T08:46:09.240Z,99.90
2023-01-20T08:48:37.541Z,99.90
2023-01-20T08:51:09.917Z,99.90
2023-01-20T08:53:36.818Z,99.90
2023-01-20T08:56:04.236Z,99.90
2023-01-20T08:58:31.423Z,99.90
2023-01-20T09:00:58.614Z,99.90
2023-01-20T09:03:26.434Z,99.90
2023-01-20T09:05:53.235Z,99.90
2023-01-20T09:08:20.709Z,99.90
2023-01-20T09:10:47.532Z,99.90
2023-01-20T09:13:14.589Z,99.90
2023-01-20T09:15:41.317Z,99.90
2023-01-20T09:18:08.161Z,99.90
2023-01-20T09:20:35.147Z,99.90
2023-01-20T09:23:03.054Z,99.90
2023-01-20T09:25:29.940Z,99.90
2023-01-20T09:28:00.690Z,99.90
2023-01-20T09:30:27.665Z,99.80
2023-01-20T09:32:56.431Z,99.70
2023-01-20T09:35:23.486Z,99.60
2023-01-20T09:38:08.620Z,99.60
2023-01-20T09:41:02.658Z,99.60
2023-01-20T09:43:55.490Z,99.40
2023-01-20T09:46:36.084Z,99.70
2023-01-20T09:49:43.176Z,99.90
2023-01-20T09:52:48.536Z,99.70
2023-01-20T09:55:38.985Z,99.50
2023-01-20T09:58:05.777Z,99.10
2023-01-20T10:00:33.905Z,98.90
2023-01-20T10:03:09.945Z,98.80
2023-01-20T10:05:40.214Z,98.80
2023-01-20T10:08:36.153Z,98.60
2023-01-20T10:11:13.659Z,98.20
2023-01-20T10:13:52.180Z,97.90
2023-01-20T10:16:28.973Z,98.20
2023-01-20T10:19:01.593Z,98.30
2023-01-20T10:21:41.730Z,98.30
2023-01-20T10:24:16.430Z,98.40
2023-01-20T10:26:59.116Z,98.30
2023-01-20T10:29:41.429Z,97.90
2023-01-20T10:32:23.317Z,97.70
2023-01-20T10:34:56.303Z,97.90
2023-01-20T10:37:24.404Z,97.90
2023-01-20T10:40:07.417Z,97.40
2023-01-20T10:42:42.575Z,98.00
2023-01-20T10:45:34.713Z,97.80
2023-01-20T10:48:32.895Z,97.10
2023-01-20T10:51:15.133Z,96.80
2023-01-20T10:53:59.654Z,96.80
2023-01-20T10:56:40.365Z,97.00
2023-01-20T10:59:17.457Z,96.50
2023-01-20T11:01:59.410Z,96.50
2023-01-20T11:04:35.969Z,96.50
2023-01-20T11:07:03.704Z,96.30
2023-01-20T11:09:34.550Z,96.50
2023-01-20T11:12:06.522Z,96.40
2023-01-20T11:14:33.814Z,96.10
2023-01-20T11:17:05.246Z,95.90
2023-01-20T11:19:52.596Z,96.00
2023-01-20T11:22:32.957Z,95.90
2023-01-20T11:25:01.918Z,96.10
2023-01-20T11:27:35.093Z,95.40
2023-01-20T11:30:07.886Z,95.80
2023-01-20T11:32:37.151Z,95.70
2023-01-20T11:35:33.294Z,95.50
2023-01-20T11:38:20.644Z,95.00
2023-01-20T11:40:53.990Z,94.70
2023-01-20T11:43:37.891Z,93.90
2023-01-20T11:46:36.412Z,93.90
2023-01-20T11:49:19.962Z,93.70
2023-01-20T11:51:48.817Z,93.70
2023-01-20T11:54:19.250Z,93.40
2023-01-20T11:56:49.284Z,93.50
2023-01-20T11:59:35.375Z,93.30
2023-01-20T12:02:05.075Z,92.50
2023-01-20T12:04:59.537Z,92.60
2023-01-20T12:07:34.884Z,92.70
2023-01-20T12:10:16.507Z,92.60
2023-01-20T12:12:49.521Z,92.70
2023-01-20T12:15:19.007Z,92.70
2023-01-20T12:18:19.020Z,92.30
2023-01-20T12:20:55.739Z,92.40
2023-01-20T12:24:02.229Z,91.20
2023-01-20T12:26:31.784Z,90.70
2023-01-20T12:29:05.069Z,91.10
2023-01-20T12:31:32.988Z,90.70
2023-01-20T12:34:14.894Z,91.20
2023-01-20T12:37:00.161Z,90.60
2023-01-20T12:39:50.192Z,91.00
2023-01-20T12:42:35.885Z,90.10
2023-01-20T12:45:21.405Z,90.00
2023-01-20T12:48:25.741Z,90.40
2023-01-20T12:51:16.189Z,98.50
2023-01-20T12:54:01.395Z,91.00
2023-01-20T12:56:44.485Z,89.60
2023-01-20T12:59:38.906Z,89.20
2023-01-20T13:02:37.623Z,88.50
2023-01-20T13:05:27.376Z,88.00
2023-01-20T13:08:20.947Z,88.30
2023-01-20T13:11:09.506Z,87.00
2023-01-20T13:14:00.812Z,87.60
2023-01-20T13:16:36.377Z,88.20
2023-01-20T13:19:14.703Z,88.10
2023-01-20T13:21:42.545Z,86.60
2023-01-20T13:24:29.274Z,87.40
2023-01-20T13:27:00.456Z,86.30
2023-01-20T13:29:36.160Z,85.50
2023-01-20T13:32:03.986Z,84.90
2023-01-20T13:34:35.423Z,84.50
2023-01-20T13:37:10.149Z,85.90
2023-01-20T13:39:46.697Z,86.30
2023-01-20T13:42:38.614Z,86.90
2023-01-20T13:45:11.453Z,87.10
2023-01-20T13:48:05.959Z,88.10
2023-01-20T13:50:42.369Z,90.20
2023-01-20T13:53:15.263Z,91.00
2023-01-20T13:55:42.029Z,91.30
2023-01-20T13:58:29.915Z,91.10
2023-01-20T14:00:57.962Z,90.90
2023-01-20T14:03:39.746Z,90.60
2023-01-20T14:06:18.218Z,91.10
2023-01-20T14:08:50.659Z,90.80
2023-01-20T14:11:22.827Z,90.60
2023-01-20T14:13:59.634Z,91.10
2023-01-20T14:16:27.981Z,91.20
2023-01-20T14:18:59.143Z,91.70
2023-01-20T14:21:28.333Z,92.00
2023-01-20T14:23:55.441Z,91.70
2023-01-20T14:26:22.121Z,91.90
2023-01-20T14:28:51.771Z,92.20
2023-01-20T14:31:22.720Z,92.50
2023-01-20T14:33:57.932Z,93.00
2023-01-20T14:36:26.485Z,92.40
2023-01-20T14:38:58.190Z,91.60
2023-01-20T14:41:55.140Z,90.50
2023-01-20T14:44:24.364Z,88.10
2023-01-20T14:46:57.444Z,87.10
2023-01-20T14:49:34.426Z,86.90
2023-01-20T14:52:02.093Z,87.20
2023-01-20T14:54:31.754Z,87.30
2023-01-20T14:56:59.736Z,87.20
2023-01-20T14:59:26.662Z,87.50
2023-01-20T15:01:55.336Z,87.70
2023-01-20T15:04:22.666Z,87.70
2023-01-20T15:06:56.843Z,87.80
2023-01-20T15:09:34.704Z,87.60
2023-01-20T15:12:32.846Z,87.20
2023-01-20T15:15:24.928Z,88.30
2023-01-20T15:18:16.806Z,90.80
2023-01-20T15:21:32.510Z,90.80
2023-01-20T15:24:32.805Z,87.90
2023-01-20T15:27:02.163Z,87.20
2023-01-20T15:29:32.015Z,88.20
2023-01-20T15:32:06.281Z,89.70
2023-01-20T15:34:33.408Z,90.30
2023-01-20T15:37:00.186Z,90.70
2023-01-20T15:39:31.343Z,90.70
2023-01-20T15:41:58.554Z,90.50
2023-01-20T15:44:26.467Z,90.80
2023-01-20T15:46:56.802Z,90.80
2023-01-20T15:49:25.523Z,90.70
2023-01-20T15:51:52.648Z,90.50
2023-01-20T15:54:19.415Z,90.30
2023-01-20T15:56:46.228Z,90.50
2023-01-20T15:59:14.642Z,90.30
2023-01-20T16:01:41.454Z,90.40
2023-01-20T16:04:09.998Z,90.40
2023-01-20T16:06:37.569Z,90.80
2023-01-20T16:09:21.105Z,90.90
2023-01-20T16:11:47.824Z,90.80
2023-01-20T16:14:14.554Z,90.60
2023-01-20T16:16:41.350Z,90.40
2023-01-20T16:19:13.682Z,89.80
2023-01-20T16:21:40.340Z,90.10
2023-01-20T16:24:07.397Z,90.20
2023-01-20T16:26:35.166Z,90.00
2023-01-20T16:29:01.897Z,90.00
2023-01-20T16:31:28.955Z,90.00
2023-01-20T16:33:56.008Z,90.20
2023-01-20T16:36:25.626Z,89.80
2023-01-20T16:38:52.895Z,90.00
2023-01-20T16:41:25.847Z,90.10
2023-01-20T16:43:54.038Z,90.00
2023-01-20T16:46:22.421Z,91.40
2023-01-20T16:48:49.770Z,91.10
2023-01-20T16:51:19.017Z,90.50
2023-01-20T16:53:45.848Z,90.20
2023-01-20T16:56:17.448Z,89.90
2023-01-20T16:58:46.447Z,89.30
2023-01-20T17:01:13.286Z,89.20
2023-01-20T17:03:41.709Z,88.90
2023-01-20T17:06:16.017Z,89.40
2023-01-20T17:08:45.135Z,88.80
2023-01-20T17:11:20.386Z,88.90
2023-01-20T17:13:47.252Z,89.00
2023-01-20T17:16:14.147Z,89.40
2023-01-20T17:18:45.126Z,90.00
2023-01-20T17:21:13.491Z,90.00
2023-01-20T17:23:40.826Z,90.20
2023-01-20T17:26:08.799Z,89.80
2023-01-20T17:28:35.901Z,90.00
2023-01-20T17:31:04.178Z,90.00
2023-01-20T17:33:31.092Z,90.00
2023-01-20T17:35:59.317Z,90.00
2023-01-20T17:38:28.243Z,90.00
2023-01-20T17:40:59.552Z,90.10
2023-01-20T17:43:26.255Z,90.20
2023-01-20T17:45:52.939Z,90.20
2023-01-20T17:48:19.711Z,90.40
2023-01-20T17:50:46.406Z,90.60
2023-01-20T17:53:13.072Z,90.60
2023-01-20T17:55:39.841Z,90.70
2023-01-20T17:58:06.561Z,91.30
2023-01-20T18:00:33.285Z,91.30
2023-01-20T18:02:59.995Z,91.00
2023-01-20T18:05:27.852Z,91.00
2023-01-20T18:07:54.549Z,90.90
2023-01-20T18:10:21.286Z,91.00
2023-01-20T18:12:48.036Z,90.90
2023-01-20T18:15:14.815Z,90.90
2023-01-20T18:17:43.331Z,90.80
2023-01-20T18:20:11.099Z,90.90
2023-01-20T18:22:37.906Z,90.90
2023-01-20T18:25:05.048Z,91.00
2023-01-20T18:27:32.150Z,91.20
2023-01-20T18:29:58.859Z,91.30
2023-01-20T18:32:25.884Z,91.50
2023-01-20T18:34:52.654Z,92.00
2023-01-20T18:37:19.313Z,92.50
2023-01-20T18:39:46.096Z,92.50
2023-01-20T18:42:12.748Z,92.50
2023-01-20T18:44:39.499Z,92.50
2023-01-20T18:47:06.186Z,92.10
2023-01-20T18:49:32.884Z,91.90
2023-01-20T18:51:59.534Z,92.10
2023-01-20T18:54:27.091Z,92.40
2023-01-20T18:56:54.958Z,92.20
2023-01-20T18:59:21.833Z,92.50
2023-01-20T19:01:49.044Z,92.30
2023-01-20T19:04:15.788Z,92.10
2023-01-20T19:06:44.612Z,92.20
2023-01-20T19:09:12.105Z,92.20
2023-01-20T19:11:41.187Z,91.90
2023-01-20T19:14:11.791Z,91.90
2023-01-20T19:16:42.261Z,91.70
2023-01-20T19:19:10.993Z,91.70
2023-01-20T19:21:37.722Z,91.70
2023-01-20T19:24:06.897Z,91.80
2023-01-20T19:26:36.780Z,91.80
2023-01-20T19:29:10.539Z,91.90
2023-01-20T19:31:39.674Z,92.10
2023-01-20T19:34:07.911Z,91.90
2023-01-20T19:36:35.475Z,92.00
2023-01-20T19:39:02.345Z,92.90
2023-01-20T19:41:33.344Z,92.30
2023-01-20T19:44:01.327Z,92.30
2023-01-20T19:46:30.880Z,92.20
2023-01-20T19:49:01.347Z,92.20
2023-01-20T19:51:31.084Z,91.80
2023-01-20T19:54:00.673Z,91.70
2023-01-20T19:56:31.198Z,91.70
2023-01-20T19:59:00.753Z,91.60
2023-01-20T20:01:33.491Z,91.50
2023-01-20T20:04:13.638Z,91.50
2023-01-20T20:06:45.015Z,91.60
2023-01-20T20:09:26.215Z,91.90
2023-01-20T20:11:53.221Z,91.70
2023-01-20T20:14:24.567Z,91.70
2023-01-20T20:16:51.438Z,91.80
2023-01-20T20:19:19.302Z,91.80
2023-01-20T20:21:46.751Z,91.80
2023-01-20T20:24:15.657Z,91.80
2023-01-20T20:26:51.368Z,91.90
2023-01-20T20:29:19.290Z,91.80
2023-01-20T20:31:46.894Z,91.90
2023-01-20T20:34:16.140Z,91.90
2023-01-20T20:36:43.383Z,92.10
2023-01-20T20:39:13.778Z,92.10
2023-01-20T20:41:40.649Z,92.20
2023-01-20T20:44:07.464Z,92.40
2023-01-20T20:46:34.550Z,92.20
2023-01-20T20:49:02.282Z,92.10
2023-01-20T20:51:34.381Z,92.30
2023-01-20T20:54:03.122Z,92.50
2023-01-20T20:56:33.921Z,92.60
2023-01-20T20:59:03.151Z,92.60
2023-01-20T21:01:32.776Z,92.50
2023-01-20T21:04:00.647Z,92.60
2023-01-20T21:06:28.377Z,92.90
2023-01-20T21:08:55.610Z,93.10
2023-01-20T21:11:24.084Z,93.50
2023-01-20T21:13:51.607Z,94.10
2023-01-20T21:16:21.941Z,94.50
2023-01-20T21:18:50.141Z,94.30
2023-01-20T21:21:17.341Z,94.00
2023-01-20T21:23:51.643Z,93.70
2023-01-20T21:26:19.035Z,93.70
2023-01-20T21:28:49.093Z,93.80
2023-01-20T21:31:20.816Z,93.90
2023-01-20T21:33:51.870Z,94.20
2023-01-20T21:36:18.554Z,94.40
2023-01-20T21:38:46.485Z,94.80
2023-01-20T21:41:14.962Z,94.70
2023-01-20T21:44:02.539Z,94.80
2023-01-20T21:46:34.128Z,95.60
2023-01-20T21:49:20.358Z,95.70
2023-01-20T21:52:06.023Z,96.30
2023-01-20T21:54:34.084Z,96.70
2023-01-20T21:57:01.664Z,97.70
2023-01-20T21:59:28.487Z,97.80
2023-01-20T22:01:55.153Z,97.50
2023-01-20T22:04:21.844Z,98.00
2023-01-20T22:06:48.521Z,97.80
2023-01-20T22:09:15.332Z,97.70
2023-01-20T22:11:42.099Z,98.00
2023-01-20T22:14:10.000Z,98.40
2023-01-20T22:16:36.982Z,98.90
2023-01-20T22:19:03.729Z,98.80
2023-01-20T22:21:31.759Z,99.50
2023-01-20T22:23:58.518Z,99.60
2023-01-20T22:26:25.301Z,99.40
2023-01-20T22:28:52.878Z,98.90
2023-01-20T22:31:23.376Z,98.70
2023-01-20T22:33:54.569Z,98.30
2023-01-20T22:36:22.939Z,97.90
2023-01-20T22:38:51.548Z,97.50
2023-01-20T22:41:19.765Z,97.40
2023-01-20T22:43:47.988Z,96.80
2023-01-20T22:46:17.010Z,97.30
2023-01-20T22:48:44.256Z,96.90
2023-01-20T22:51:16.984Z,96.90
2023-01-20T22:53:44.138Z,96.80
2023-01-20T22:56:17.695Z,96.40
2023-01-20T22:58:45.094Z,96.50
2023-01-20T23:01:13.611Z,96.10
2023-01-20T23:03:41.174Z,95.90
2023-01-20T23:06:08.714Z,95.80
2023-01-20T23:08:35.546Z,95.20
2023-01-20T23:11:08.382Z,94.90
2023-01-20T23:13:35.866Z,94.90
2023-01-20T23:16:04.736Z,94.90
2023-01-20T23:18:31.925Z,94.90
2023-01-20T23:20:59.225Z,94.80
2023-01-20T23:23:27.311Z,94.70
2023-01-20T23:26:12.597Z,94.70
2023-01-20T23:28:39.335Z,94.60
2023-01-20T23:31:08.614Z,94.60
2023-01-20T23:33:35.524Z,94.70
2023-01-20T23:36:17.291Z,94.70
2023-01-20T23:38:44.740Z,94.80
2023-01-20T23:41:12.872Z,94.80
2023-01-20T23:43:39.666Z,94.70
2023-01-20T23:46:07.444Z,94.40
2023-01-20T23:48:34.684Z,94.50
2023-01-20T23:51:02.549Z,94.50
2023-01-20T23:53:31.555Z,94.40
2023-01-20T23:56:03.720Z,94.40
2023-01-20T23:58:30.644Z,94.40
